Time;durP1;ratioP1;P1;durP2;ratioP2;P2;SDS_P1;SDS_P2;PMS_P1;PMS_P2;Temp;Humidity;BMP_temperature;BMP_pressure;BME280_temperature;BME280_humidity;BME280_pressure;Samples;Min_cycle;Max_cycle;Signal;HPM_P1;HPM_P2
2022/05/20 11:19:15;;;;;;;2.67;2.20;;;;;;;18.93;61.38;101477.66;5082298;28;20896;-88
2022/05/20 11:22:02;;;;;;;2.40;2.20;;;;;;;19.05;61.94;101469.22;5050336;28;20114;-87
2022/05/20 11:25:05;;;;;;;2.30;1.95;;;;;;;19.43;59.03;101464.16;5065863;28;20480;-87
2022/05/20 11:27:55;;;;;;;1.70;1.60;;;;;;;19.67;59.19;101473.81;5038047;28;20029;-87
2022/05/20 11:34:12;;;;;;;2.83;2.50;;;;;;;20.94;59.01;101462.00;5090072;27;20437;-90
2022/05/20 11:40:56;;;;;;;2.70;2.13;;;;;;;20.94;53.40;101439.88;5026924;28;20041;-89
2022/05/20 11:44:19;;;;;;;3.27;2.00;;;;;;;20.56;54.54;101442.50;4947731;29;20095;-89
2022/05/20 11:47:58;;;;;;;3.97;2.20;;;;;;;20.42;52.69;101430.75;4948752;28;20062;-89
2022/05/20 12:05:55;;;;;;;2.58;1.98;;;;;;;21.47;55.58;101400.13;5164427;27;20375;-87
2022/05/20 12:08:44;;;;;;;2.40;2.20;;;;;;;21.44;57.17;101396.66;5111804;28;20068;-87
2022/05/20 12:11:28;;;;;;;1.88;1.77;;;;;;;21.36;60.31;101398.84;5130057;28;20498;-86
2022/05/20 12:14:14;;;;;;;1.80;1.70;;;;;;;21.20;57.34;101398.78;5130198;28;20019;-87
2022/05/20 12:16:58;;;;;;;1.95;1.85;;;;;;;21.01;55.30;101388.19;5107266;28;20040;-87
2022/05/20 12:25:29;;;;;;;2.50;1.83;;;;;;;20.64;58.82;101354.56;5109192;28;20504;-86
2022/05/20 12:28:02;;;;;;;3.05;2.17;;;;;;;20.64;61.04;101355.44;5109342;28;20035;-86
2022/05/20 12:30:37;;;;;;;2.37;2.13;;;;;;;20.62;59.35;101346.69;5108756;28;20023;-87
2022/05/20 12:33:10;;;;;;;;;;;;;;;20.62;58.03;101341.38;5092140;28;20077;-87
2022/05/20 12:35:35;;;;;;;4.18;1.77;;;;;;;20.63;62.58;101335.16;5091607;28;20357;-86
2022/05/20 12:38:24;;;;;;;3.67;1.92;;;;;;;20.67;59.69;101334.06;5091458;28;20024;-87
2022/05/20 12:40:51;;;;;;;3.20;1.80;;;;;;;20.79;60.65;101326.47;5090870;28;20162;-86
2022/05/20 12:43:17;;;;;;;3.00;1.88;;;;;;;20.84;57.24;101319.13;5090699;28;20028;-87
2022/05/20 12:45:52;;;;;;;2.28;2.13;;;;;;;20.91;59.95;101310.81;5091751;28;20024;-86
2022/05/20 12:48:21;;;;;;;2.05;1.90;;;;;;;20.99;59.28;101299.78;5091296;28;20040;-86
2022/05/20 12:51:05;;;;;;;2.22;1.90;;;;;;;20.91;57.36;101286.91;5091817;28;20024;-86
2022/05/20 12:53:33;;;;;;;3.33;1.73;;;;;;;20.88;56.44;101288.84;5091538;28;20023;-87
2022/05/20 12:56:00;;;;;;;3.08;1.95;;;;;;;20.85;56.82;101283.69;5091469;28;20024;-86
2022/05/20 12:58:29;;;;;;;2.33;2.10;;;;;;;20.81;60.72;101282.13;5091590;28;20035;-87
2022/05/20 13:00:58;;;;;;;1.98;1.80;;;;;;;20.80;56.43;101269.78;5091528;28;20020;-86
2022/05/20 13:03:29;;;;;;;5.93;2.05;;;;;;;20.76;54.25;101256.66;5091308;28;20027;-87
2022/05/20 13:05:57;;;;;;;2.08;1.98;;;;;;;20.71;53.04;101250.72;5107681;28;20024;-86
2022/05/20 13:08:33;;;;;;;2.75;1.90;;;;;;;20.74;52.81;101245.25;5124323;28;20080;-86
2022/05/20 13:11:10;;;;;;;4.00;1.65;;;;;;;20.94;55.03;101238.06;5111325;28;20468;-86
2022/05/20 13:13:37;;;;;;;2.42;2.13;;;;;;;21.11;54.13;101224.78;5111427;28;20027;-81
2022/05/20 13:16:05;;;;;;;3.22;2.08;;;;;;;21.38;57.27;101224.28;5122469;28;20019;-81
2022/05/20 13:18:37;;;;;;;1.58;1.48;;;;;;;21.64;53.72;101208.75;5099197;28;20404;-81
2022/05/20 13:21:03;;;;;;;5.57;1.90;;;;;;;21.84;52.38;101215.63;5098905;28;20023;-80
2022/05/20 13:23:35;;;;;;;2.22;2.13;;;;;;;22.10;53.14;101216.81;5098461;28;20096;-81
2022/05/20 13:26:01;;;;;;;2.00;1.90;;;;;;;22.44;56.23;101208.72;5098786;28;20030;-81
2022/05/20 13:28:30;;;;;;;3.17;1.90;;;;;;;22.73;54.48;101216.84;5098272;28;20508;-81
2022/05/20 13:31:04;;;;;;;2.28;2.08;;;;;;;23.06;56.44;101197.94;5098795;28;20123;-81
2022/05/20 13:33:30;;;;;;;3.20;1.73;;;;;;;23.31;53.24;101185.81;5106136;28;20016;-81
2022/05/20 13:35:56;;;;;;;2.33;1.50;;;;;;;23.50;49.04;101176.69;5090973;28;20054;-81
2022/05/20 13:38:28;;;;;;;2.03;1.65;;;;;;;23.67;48.97;101176.47;5097517;28;20015;-81
2022/05/20 13:40:53;;;;;;;3.55;1.77;;;;;;;23.78;48.00;101168.63;5097874;28;20080;-81
2022/05/20 13:43:22;;;;;;;1.80;1.67;;;;;;;23.90;49.74;101169.69;5097548;28;20019;-81
2022/05/20 13:51:27;;;;;;;1.60;1.50;;;;;;;24.13;50.75;101164.63;5095213;28;20062;-81
2022/05/20 13:53:56;;;;;;;2.70;1.38;;;;;;;24.19;50.83;101158.06;5077356;28;20016;-81
2022/05/20 13:56:26;;;;;;;1.83;1.10;;;;;;;24.25;50.98;101163.81;5094130;28;20020;-81
2022/05/20 13:58:52;;;;;;;1.20;1.10;;;;;;;24.11;47.08;101156.72;5106454;28;20024;-81
2022/05/20 14:01:19;;;;;;;2.17;1.20;;;;;;;23.96;49.16;101158.59;5097342;28;20442;-81
2022/05/20 14:03:48;;;;;;;1.70;1.20;;;;;;;23.84;50.91;101146.03;5096373;28;20405;-82
2022/05/20 14:06:16;;;;;;;2.08;1.20;;;;;;;23.80;49.16;101142.72;5097020;28;20019;-82
2022/05/20 14:08:52;;;;;;;2.88;1.30;;;;;;;23.86;48.37;101136.13;5096355;28;20084;-83
2022/05/20 14:11:19;;;;;;;2.78;1.65;;;;;;;23.90;45.84;101128.78;5096409;28;20031;-83
2022/05/20 14:13:44;;;;;;;1.65;1.00;;;;;;;23.92;46.16;101118.88;5096344;28;20023;-81
2022/05/20 14:16:17;;;;;;;3.20;2.80;;;;;;;23.94;47.80;101123.16;5096312;28;20091;-85
2022/05/20 14:18:46;;;;;;;4.25;3.63;;;;;;;24.02;50.06;101122.63;5097073;28;20024;-82
2022/05/20 14:21:15;;;;;;;2.22;1.45;;;;;;;24.09;46.90;101126.63;5096485;28;20476;-82
2022/05/20 14:23:47;;;;;;;2.03;1.52;;;;;;;24.24;50.29;101107.88;5096089;28;20452;-82
2022/05/20 14:26:21;;;;;;;1.48;1.20;;;;;;;24.38;52.24;101099.78;5095980;28;20430;-82
2022/05/20 14:28:59;;;;;;;2.55;1.60;;;;;;;24.50;51.45;101097.22;5094692;28;20027;-82
2022/05/20 14:31:33;;;;;;;1.27;1.17;;;;;;;24.51;48.99;101083.78;5113100;28;20035;-81
2022/05/20 14:34:04;;;;;;;1.27;1.20;;;;;;;24.48;52.33;101078.66;5112720;28;20481;-81
2022/05/20 14:36:29;;;;;;;1.10;1.00;;;;;;;24.44;51.16;101083.34;5095987;28;20114;-81
2022/05/20 14:38:57;;;;;;;1.40;1.30;;;;;;;24.32;51.95;101072.66;5095776;28;20123;-81
2022/05/20 14:41:25;;;;;;;1.60;1.50;;;;;;;24.17;51.85;101070.06;5113042;28;20662;-81
2022/05/20 14:43:52;;;;;;;2.17;1.40;;;;;;;23.96;54.75;101061.72;5095750;28;20544;-82
2022/05/20 14:49:25;;;;;;;1.23;1.13;;;;;;;23.48;54.13;101055.94;5113039;28;20031;-81
2022/05/20 14:51:55;;;;;;;1.73;1.60;;;;;;;23.27;52.57;101043.94;5112621;28;20023;-81
2022/05/20 14:54:24;;;;;;;1.63;1.27;;;;;;;22.95;49.04;101032.63;5096232;28;20492;-81
2022/05/20 14:56:50;;;;;;;1.40;1.30;;;;;;;22.81;53.97;101025.50;5095451;28;20032;-81
2022/05/20 14:59:31;;;;;;;1.30;1.20;;;;;;;22.64;53.11;101023.03;5095562;28;20019;-81
2022/05/20 15:01:57;;;;;;;1.48;1.23;;;;;;;22.50;53.85;101014.09;5095507;28;20091;-81
2022/05/20 15:04:23;;;;;;;1.50;1.40;;;;;;;22.30;53.56;101007.28;5095489;28;20024;-81
2022/05/20 15:06:48;;;;;;;2.10;1.63;;;;;;;22.09;52.17;101001.47;5095520;28;20028;-81
2022/05/20 15:09:22;;;;;;;3.03;1.42;;;;;;;21.77;52.91;100991.78;5112546;28;20026;-81
2022/05/20 15:11:47;;;;;;;2.50;1.27;;;;;;;21.63;56.98;100993.53;5095318;28;20034;-81
2022/05/20 15:14:13;;;;;;;2.05;1.42;;;;;;;21.51;58.86;100995.06;5094119;28;20016;-80
2022/05/20 15:16:38;;;;;;;1.50;1.40;;;;;;;21.28;56.81;100976.84;5094173;28;20476;-81
2022/05/20 15:19:04;;;;;;;1.92;1.73;;;;;;;21.15;53.27;100972.31;5095527;28;20030;-81
2022/05/20 15:21:32;;;;;;;2.58;1.40;;;;;;;21.01;55.64;100965.97;5094318;28;20054;-82
2022/05/20 15:23:58;;;;;;;3.03;1.48;;;;;;;20.88;55.41;100959.63;5095235;28;20484;-81
2022/05/20 15:26:29;;;;;;;1.50;1.40;;;;;;;20.79;58.73;100960.13;5111800;28;20374;-81
2022/05/20 15:28:54;;;;;;;3.08;1.42;;;;;;;20.71;57.17;100953.44;5095153;28;20027;-81
2022/05/20 15:37:04;;;;;;;1.55;1.45;;;;;;;20.44;56.10;100935.41;5111686;28;20088;-82
2022/05/20 15:39:32;;;;;;;2.03;1.83;;;;;;;20.33;58.17;100927.16;5095492;28;20492;-80
2022/05/20 15:41:58;;;;;;;2.08;1.88;;;;;;;20.32;62.73;100935.22;5111769;28;20038;-82
2022/05/20 15:44:25;;;;;;;2.30;1.60;;;;;;;20.26;61.25;100931.09;5094904;28;20110;-81
2022/05/20 15:46:52;;;;;;;3.33;1.70;;;;;;;20.15;57.47;100922.81;5094929;28;20015;-82
2022/05/20 15:49:17;;;;;;;2.17;2.08;;;;;;;20.00;56.55;100911.22;5094689;28;20027;-81
2022/05/20 15:51:43;;;;;;;3.45;2.45;;;;;;;19.87;56.83;100898.63;5111584;28;20503;-81
2022/05/20 15:54:09;;;;;;;3.75;2.22;;;;;;;19.72;56.74;100884.34;5094816;28;20076;-81
2022/05/20 15:56:36;;;;;;;2.53;1.98;;;;;;;19.61;58.78;100881.38;5094520;28;20119;-82
2022/05/20 15:59:02;;;;;;;4.40;1.98;;;;;;;19.54;60.84;100882.66;5091443;28;20036;-80
2022/05/20 16:01:28;;;;;;;2.00;1.83;;;;;;;19.46;60.03;100883.03;5074705;28;20024;-79
2022/05/20 16:03:53;;;;;;;3.53;2.00;;;;;;;19.40;62.52;100876.25;5074548;28;20515;-82
2022/05/20 16:06:24;;;;;;;2.35;2.15;;;;;;;19.32;60.76;100870.47;5092324;28;20434;-82
2022/05/20 16:08:50;;;;;;;2.15;1.80;;;;;;;19.31;63.29;100873.22;5094507;28;20481;-82
2022/05/20 16:11:22;;;;;;;2.60;2.15;;;;;;;19.23;62.35;100870.94;5094319;28;20118;-82
2022/05/20 16:13:48;;;;;;;1.90;1.80;;;;;;;19.24;66.95;100856.78;5093905;28;20073;-82
2022/05/20 16:16:13;;;;;;;3.25;2.20;;;;;;;19.17;64.99;100850.03;5094284;28;20035;-82
2022/05/20 16:18:38;;;;;;;5.18;2.00;;;;;;;19.13;64.59;100849.38;5111525;28;20107;-83
2022/05/20 16:21:04;;;;;;;3.03;2.13;;;;;;;19.11;67.56;100840.63;5094141;28;20457;-82
2022/05/20 16:23:38;;;;;;;7.63;3.05;;;;;;;19.07;69.43;100833.75;5093503;28;20028;-82
2022/05/20 16:26:03;;;;;;;2.58;2.30;;;;;;;19.03;70.02;100829.56;5094208;28;20510;-82
2022/05/20 16:28:29;;;;;;;1.98;1.85;;;;;;;18.96;67.84;100830.81;5094095;28;20152;-82
2022/05/20 16:30:55;;;;;;;3.08;1.83;;;;;;;18.87;66.04;100824.13;5094217;28;20027;-82
2022/05/20 16:33:20;;;;;;;2.42;2.22;;;;;;;18.79;65.54;100823.63;5094222;28;20034;-82
2022/05/20 16:35:47;;;;;;;2.80;2.50;;;;;;;18.77;70.14;100828.16;5093849;28;20024;-82
2022/05/20 16:38:13;;;;;;;2.45;2.25;;;;;;;18.68;69.91;100819.75;5111256;28;20038;-82
2022/05/20 16:40:38;;;;;;;2.20;1.98;;;;;;;18.57;66.49;100819.41;5094166;28;20551;-84
2022/05/20 16:43:04;;;;;;;2.00;1.80;;;;;;;18.51;67.61;100832.91;5092853;28;20530;-82
2022/05/20 16:45:30;;;;;;;2.70;2.30;;;;;;;18.44;68.63;100831.50;5093760;28;20020;-82
2022/05/20 16:47:59;;;;;;;3.17;2.30;;;;;;;18.41;72.35;100819.28;5094064;28;20024;-82
2022/05/20 16:50:29;;;;;;;4.22;2.42;;;;;;;18.35;73.03;100804.56;5093750;28;20027;-82
2022/05/20 16:52:55;;;;;;;3.00;2.42;;;;;;;18.29;73.65;100786.31;5097614;28;20147;-82
2022/05/20 16:55:20;;;;;;;2.65;2.10;;;;;;;18.26;75.49;100767.97;5097223;28;20036;-82
2022/05/20 17:03:14;;;;;;;3.40;3.20;;;;;;;18.07;78.51;100734.47;5115013;28;20119;-83
2022/05/20 17:05:41;;;;;;;2.78;2.58;;;;;;;18.02;78.71;100712.66;5097485;28;20106;-82
2022/05/20 17:08:07;;;;;;;3.67;2.85;;;;;;;17.98;79.06;100726.09;5097790;28;20062;-82
2022/05/20 17:10:33;;;;;;;2.70;2.50;;;;;;;17.94;79.00;100716.59;5096856;28;20031;-82
2022/05/20 17:13:15;;;;;;;3.22;3.03;;;;;;;17.93;80.84;100713.13;5097262;28;20457;-82
2022/05/20 17:15:41;;;;;;;3.00;2.80;;;;;;;17.92;82.02;100706.13;5097438;28;20473;-82
2022/05/20 17:18:06;;;;;;;2.88;2.70;;;;;;;17.84;79.53;100692.38;5097255;28;20116;-82
2022/05/20 17:20:32;;;;;;;3.20;2.90;;;;;;;17.85;80.63;100686.16;5096692;28;20027;-81
2022/05/20 17:25:41;;;;;;;3.25;2.92;;;;;;;17.81;80.67;100639.69;5114681;28;20396;-82
2022/05/20 17:28:07;;;;;;;3.40;3.15;;;;;;;17.78;79.29;100623.97;5096953;28;20118;-83
2022/05/20 17:30:32;;;;;;;3.40;3.10;;;;;;;17.79;80.61;100601.91;5097269;28;20416;-80
2022/05/20 17:32:57;;;;;;;3.47;3.20;;;;;;;17.73;78.94;100611.81;5097069;28;20027;-81
2022/05/20 17:35:23;;;;;;;3.85;3.40;;;;;;;17.68;78.20;100611.22;5096910;28;20440;-81
2022/05/20 17:37:48;;;;;;;3.88;3.58;;;;;;;17.65;78.83;100598.13;5096953;28;20046;-80
2022/05/20 17:40:14;;;;;;;3.85;3.60;;;;;;;17.65;81.62;100603.41;5097259;28;20219;-81
2022/05/20 17:42:40;;;;;;;3.40;3.20;;;;;;;17.65;81.24;100597.28;5097043;28;20055;-81
2022/05/20 17:45:06;;;;;;;3.63;3.42;;;;;;;17.61;79.95;100591.28;5096807;28;20050;-81
2022/05/20 17:47:32;;;;;;;3.58;3.28;;;;;;;17.55;77.84;100565.19;5096650;28;20028;-81
2022/05/20 17:49:57;;;;;;;3.05;2.85;;;;;;;17.57;81.02;100558.03;5096824;28;20084;-82
2022/05/20 17:52:23;;;;;;;3.65;3.40;;;;;;;17.53;80.31;100535.34;5096777;28;20052;-81
2022/05/20 17:54:49;;;;;;;3.35;3.15;;;;;;;17.49;80.80;100528.50;5096403;28;20027;-82
2022/05/20 17:57:16;;;;;;;3.60;3.30;;;;;;;17.42;79.50;100517.34;5096625;28;20495;-82
2022/05/20 17:59:41;;;;;;;3.78;3.22;;;;;;;17.33;76.15;100494.91;5096831;28;20034;-82
2022/05/20 18:02:07;;;;;;;3.47;3.28;;;;;;;17.33;79.71;100502.81;5095893;28;20023;-82
2022/05/20 18:04:33;;;;;;;4.47;3.53;;;;;;;17.28;78.44;100510.09;5096302;28;20034;-80
2022/05/20 18:06:59;;;;;;;4.10;3.80;;;;;;;17.27;79.57;100492.53;5096599;28;20118;-81
2022/05/20 18:09:24;;;;;;;4.60;4.03;;;;;;;17.28;80.53;100494.25;5113350;28;20081;-83
2022/05/20 18:14:35;;;;;;;4.38;3.35;;;;;;;17.28;79.97;100504.81;5113529;28;20388;-83
2022/05/20 18:17:01;;;;;;;3.72;3.42;;;;;;;17.29;81.17;100493.34;5096395;28;20036;-83
2022/05/20 18:19:27;;;;;;;3.75;3.50;;;;;;;17.25;78.59;100489.13;5096227;28;20029;-83
2022/05/20 18:21:52;;;;;;;3.58;3.28;;;;;;;17.23;78.66;100485.69;5096117;28;20027;-83
2022/05/20 18:24:18;;;;;;;2.92;2.83;;;;;;;17.24;80.63;100471.59;5096318;28;20061;-83
2022/05/20 18:26:44;;;;;;;3.42;3.13;;;;;;;17.21;79.75;100462.03;5096374;28;20023;-82
2022/05/20 18:29:10;;;;;;;3.10;2.90;;;;;;;17.22;80.20;100457.63;5096214;28;20016;-83
2022/05/20 18:31:35;;;;;;;3.25;3.05;;;;;;;17.23;82.31;100439.06;5095895;28;20033;-82
2022/05/20 18:34:00;;;;;;;3.40;3.10;;;;;;;17.23;82.36;100435.56;5095991;28;20031;-83
2022/05/20 18:39:19;;;;;;;5.22;3.30;;;;;;;17.15;78.54;100412.19;5113219;28;20066;-82
2022/05/20 18:41:45;;;;;;;3.33;3.22;;;;;;;17.16;80.80;100405.97;5097365;28;20056;-82
2022/05/20 18:44:11;;;;;;;3.88;3.47;;;;;;;17.13;81.93;100392.06;5095635;28;20024;-82
2022/05/20 18:46:37;;;;;;;3.25;3.10;;;;;;;17.11;82.07;100396.56;5095657;28;20023;-82
2022/05/20 18:49:02;;;;;;;3.50;3.30;;;;;;;17.10;82.75;100390.44;5095651;28;20038;-82
2022/05/20 18:51:28;;;;;;;3.75;3.55;;;;;;;17.08;82.16;100378.25;5112563;28;20392;-82
2022/05/20 18:53:53;;;;;;;3.72;3.42;;;;;;;17.10;83.75;100368.44;5095498;28;20023;-82
2022/05/20 18:56:19;;;;;;;4.75;4.18;;;;;;;17.05;81.59;100355.50;5095508;28;20027;-83
2022/05/20 18:58:45;;;;;;;4.45;4.15;;;;;;;17.03;81.81;100352.09;5095552;28;20061;-82
2022/05/20 19:01:15;;;;;;;4.40;4.00;;;;;;;17.03;82.06;100344.19;5095471;28;20023;-83
2022/05/20 19:03:43;;;;;;;4.10;3.80;;;;;;;17.02;81.51;100345.09;5112018;28;20099;-82
2022/05/20 19:06:10;;;;;;;4.15;3.85;;;;;;;17.00;80.90;100337.25;5095634;28;20424;-81
2022/05/20 19:08:36;;;;;;;4.20;3.72;;;;;;;16.98;79.43;100325.06;5095063;28;20169;-83
2022/05/20 19:11:02;;;;;;;4.07;3.85;;;;;;;16.98;80.40;100318.00;5094766;28;20051;-80
2022/05/20 19:13:27;;;;;;;4.10;3.90;;;;;;;16.96;78.36;100314.59;5094661;28;20059;-81
2022/05/20 19:15:53;;;;;;;4.22;3.92;;;;;;;16.95;78.94;100304.97;5094990;28;20779;-82
2022/05/20 19:18:19;;;;;;;4.28;3.97;;;;;;;16.98;82.50;100302.16;5095084;28;20028;-83
2022/05/20 19:20:44;;;;;;;4.20;4.00;;;;;;;16.95;81.63;100289.13;5095135;28;20023;-83
2022/05/20 19:23:13;;;;;;;4.07;3.88;;;;;;;16.96;80.98;100287.34;5095156;28;20392;-81
2022/05/20 19:25:48;;;;;;;4.65;4.25;;;;;;;16.94;81.27;100271.59;5095444;28;20015;-82
2022/05/20 19:28:15;;;;;;;5.72;5.00;;;;;;;16.96;83.95;100279.44;5094904;28;20085;-82
2022/05/20 19:30:41;;;;;;;5.60;5.10;;;;;;;16.91;87.34;100277.03;5094794;28;20042;-81
2022/05/20 19:33:07;;;;;;;6.38;5.90;;;;;;;16.83;89.45;100271.25;5095151;28;20217;-82
2022/05/20 19:35:33;;;;;;;6.53;6.13;;;;;;;16.71;90.70;100252.47;5094727;28;20027;-80
2022/05/20 19:38:00;;;;;;;6.78;6.38;;;;;;;16.64;91.34;100240.50;5095005;28;20023;-80
2022/05/20 19:40:26;;;;;;;6.85;6.38;;;;;;;16.57;92.44;100249.63;5094849;28;20047;-80
2022/05/20 19:42:52;;;;;;;7.57;7.07;;;;;;;16.52;93.19;100251.63;5095004;28;20023;-79
2022/05/20 19:45:17;;;;;;;7.95;7.20;;;;;;;16.46;94.38;100284.41;5094797;28;20463;-81
2022/05/20 19:47:43;;;;;;;8.88;7.43;;;;;;;16.30;92.00;100349.31;5094665;28;20024;-82
2022/05/20 19:50:09;;;;;;;9.13;7.30;;;;;;;16.17;93.04;100360.41;5094664;28;20020;-80
2022/05/20 19:52:35;;;;;;;7.82;7.20;;;;;;;16.11;94.38;100315.88;5094465;28;20024;-81
2022/05/20 19:55:00;;;;;;;7.40;6.97;;;;;;;16.05;95.39;100290.69;5111616;28;20492;-81
2022/05/20 20:02:55;;;;;;;7.95;7.35;;;;;;;16.02;98.17;100289.94;5112051;28;20126;-82
2022/05/20 20:05:20;;;;;;;7.95;7.45;;;;;;;16.02;98.22;100287.31;5111419;28;20051;-81
2022/05/20 20:07:46;;;;;;;8.27;7.68;;;;;;;16.01;99.02;100281.19;5094306;28;20041;-80
2022/05/20 20:10:11;;;;;;;8.43;7.93;;;;;;;16.01;99.21;100278.56;5094578;28;20599;-80
2022/05/20 20:12:36;;;;;;;8.70;8.02;;;;;;;16.01;99.49;100272.47;5094346;28;20027;-81
2022/05/20 20:15:04;;;;;;;8.60;8.00;;;;;;;16.02;99.73;100280.28;5094268;28;20104;-80
2022/05/20 20:17:29;;;;;;;8.00;7.32;;;;;;;16.02;100.00;100280.28;5094603;28;20024;-79
2022/05/20 20:19:55;;;;;;;8.55;8.05;;;;;;;16.02;100.00;100269.75;5094569;28;20488;-79
2022/05/20 20:27:48;;;;;;;9.35;8.77;;;;;;;16.03;100.00;100268.84;5115892;28;20038;-80
2022/05/20 20:30:13;;;;;;;8.60;8.00;;;;;;;16.03;100.00;100282.00;5098796;28;20023;-80
2022/05/20 20:32:38;;;;;;;9.30;8.80;;;;;;;16.03;100.00;100279.38;5099198;28;20032;-80
2022/05/20 20:35:06;;;;;;;9.23;8.63;;;;;;;16.04;100.00;100273.16;5098818;28;20016;-80
2022/05/20 20:37:31;;;;;;;9.23;8.65;;;;;;;16.03;100.00;100275.88;5115744;28;20035;-80
2022/05/20 20:39:57;;;;;;;8.02;7.43;;;;;;;15.99;100.00;100277.81;5099153;28;20408;-80
2022/05/20 20:42:23;;;;;;;7.68;7.25;;;;;;;15.95;100.00;100297.31;5098902;28;20039;-79
2022/05/20 20:44:49;;;;;;;10.23;9.65;;;;;;;15.81;100.00;100303.16;5098030;28;20020;-80
2022/05/20 20:47:17;;;;;;;11.35;10.57;;;;;;;15.68;100.00;100323.88;5097179;28;20114;-81
2022/05/20 20:49:43;;;;;;;11.68;10.70;;;;;;;15.59;100.00;100340.06;5098469;28;20104;-82
2022/05/20 20:52:08;;;;;;;12.57;11.63;;;;;;;15.48;100.00;100350.22;5098351;28;20028;-81
2022/05/20 20:54:34;;;;;;;13.95;13.05;;;;;;;15.43;100.00;100365.34;5098144;28;20011;-80
2022/05/20 20:56:59;;;;;;;15.45;14.25;;;;;;;15.37;100.00;100372.56;5098089;28;20396;-81
2022/05/20 20:59:24;;;;;;;16.67;14.98;;;;;;;15.28;100.00;100379.97;5097966;28;20026;-81
2022/05/20 21:01:50;;;;;;;15.77;14.57;;;;;;;15.25;100.00;100399.38;5098348;28;20119;-81
2022/05/20 21:04:15;;;;;;;17.23;15.95;;;;;;;15.14;99.87;100402.44;5115315;28;20484;-81
2022/05/20 21:06:42;;;;;;;17.48;16.23;;;;;;;15.03;98.95;100428.31;5098088;28;20115;-81
2022/05/20 21:09:07;;;;;;;14.68;13.70;;;;;;;14.92;98.53;100454.19;5097953;28;20024;-80
2022/05/20 21:12:18;;;;;;;13.95;12.95;;;;;;;14.79;98.25;100469.53;5098176;28;20370;-80
2022/05/20 21:14:19;;;;;;;13.85;12.57;;;;;;;14.71;97.98;100488.22;5115054;28;20022;-81
2022/05/20 21:16:45;;;;;;;13.52;12.63;;;;;;;14.60;98.22;100506.13;5097657;28;20027;-83
2022/05/20 21:19:10;;;;;;;12.82;11.82;;;;;;;14.50;98.57;100516.13;5097784;28;20027;-81
2022/05/20 21:21:36;;;;;;;12.48;11.77;;;;;;;14.38;98.04;100517.41;5098197;28;20028;-81
2022/05/20 21:24:01;;;;;;;12.63;11.70;;;;;;;14.31;97.87;100522.00;5097784;28;20016;-81
2022/05/20 21:26:27;;;;;;;11.82;11.10;;;;;;;14.22;98.00;100519.72;5097553;28;20514;-81
2022/05/20 21:28:52;;;;;;;12.52;11.77;;;;;;;14.16;98.26;100538.31;5097652;28;20023;-81
2022/05/20 21:31:17;;;;;;;11.25;10.50;;;;;;;14.10;97.85;100502.59;5114561;28;20020;-80
2022/05/20 21:33:43;;;;;;;9.88;9.07;;;;;;;14.01;96.90;100488.00;5114852;28;20111;-80
2022/05/20 21:36:08;;;;;;;9.80;9.30;;;;;;;13.99;97.82;100521.34;5097813;28;20019;-81
2022/05/20 21:38:33;;;;;;;8.25;7.80;;;;;;;13.96;98.74;100568.72;5098023;28;20400;-81
2022/05/20 21:41:00;;;;;;;8.07;7.55;;;;;;;13.94;98.95;100595.94;5098094;28;20023;-80
2022/05/20 21:43:25;;;;;;;7.88;7.18;;;;;;;13.92;99.23;100606.50;5097778;28;20089;-81
2022/05/20 21:45:51;;;;;;;7.95;7.45;;;;;;;13.90;99.51;100626.66;5097339;28;20028;-81
2022/05/20 21:48:16;;;;;;;7.28;6.78;;;;;;;13.90;99.56;100660.81;5097743;28;20039;-81
2022/05/20 21:50:45;;;;;;;9.85;9.25;;;;;;;13.91;99.69;100664.31;5097240;28;20540;-80
2022/05/20 21:53:11;;;;;;;8.38;7.97;;;;;;;13.82;98.89;100675.94;5097539;28;20042;-82
2022/05/20 21:55:36;;;;;;;8.70;8.20;;;;;;;13.76;98.51;100697.13;5097095;28;20446;-81
2022/05/20 21:58:02;;;;;;;8.45;7.78;;;;;;;13.65;99.00;100702.69;5113977;28;20107;-80
2022/05/20 22:00:27;;;;;;;8.63;8.13;;;;;;;13.63;98.33;100718.47;5097211;28;20121;-82
2022/05/20 22:11:04;;;;;;;8.48;7.90;;;;;;;13.42;98.68;100745.31;5114424;28;20535;-82
2022/05/20 22:13:30;;;;;;;8.43;7.93;;;;;;;13.33;98.30;100734.16;5097095;28;20062;-81
2022/05/20 22:15:58;;;;;;;8.68;8.07;;;;;;;13.29;98.40;100755.22;5097146;28;20384;-81
2022/05/20 22:18:23;;;;;;;8.85;8.15;;;;;;;13.22;98.26;100749.28;5098233;28;20034;-82
2022/05/20 22:20:50;;;;;;;8.48;7.82;;;;;;;13.22;98.70;100754.53;5097637;28;20020;-82
2022/05/20 22:23:16;;;;;;;7.32;6.80;;;;;;;13.21;99.13;100762.44;5097847;28;20026;-81
2022/05/20 22:25:41;;;;;;;7.65;6.95;;;;;;;13.14;98.75;100766.97;5098111;28;20110;-82
2022/05/20 22:28:07;;;;;;;8.00;7.50;;;;;;;13.11;98.53;100782.81;5097187;28;20063;-82
2022/05/20 22:30:32;;;;;;;6.97;6.57;;;;;;;13.02;98.38;100792.63;5113903;28;20028;-82
2022/05/20 22:32:58;;;;;;;7.25;6.75;;;;;;;13.01;99.10;100806.63;5096727;28;20023;-82
2022/05/20 22:35:23;;;;;;;6.68;6.15;;;;;;;12.96;98.81;100811.13;5096993;28;20023;-82
2022/05/20 22:37:50;;;;;;;7.78;5.90;;;;;;;12.89;98.21;100813.94;5096801;28;20031;-82
2022/05/20 22:40:15;;;;;;;6.45;6.03;;;;;;;12.82;97.66;100813.22;5096678;28;20016;-82
2022/05/20 22:42:41;;;;;;;7.03;6.47;;;;;;;12.81;98.71;100832.47;5096911;28;20020;-82
2022/05/20 22:45:07;;;;;;;6.53;5.97;;;;;;;12.79;98.11;100827.25;5096496;28;20114;-82
2022/05/20 22:47:32;;;;;;;6.22;5.93;;;;;;;12.71;97.70;100837.06;5096488;28;20031;-81
2022/05/20 22:49:57;;;;;;;6.93;6.38;;;;;;;12.73;98.33;100856.22;5112153;28;20457;-82
2022/05/20 22:52:23;;;;;;;6.55;6.05;;;;;;;12.74;97.38;100862.34;5096165;28;20110;-82
2022/05/20 22:57:50;;;;;;;6.18;5.78;;;;;;;12.67;98.32;100865.09;5100106;28;20035;-82
2022/05/20 23:00:18;;;;;;;7.00;5.47;;;;;;;12.68;98.14;100866.81;5090990;28;20038;-81
2022/05/20 23:02:43;;;;;;;5.88;5.55;;;;;;;12.62;98.80;100866.09;5096294;28;20032;-82
2022/05/20 23:05:10;;;;;;;6.55;4.93;;;;;;;12.60;98.85;100881.84;5095210;28;20084;-82
2022/05/20 23:07:37;;;;;;;8.02;5.28;;;;;;;12.59;99.39;100892.38;5095748;28;20472;-82
2022/05/20 23:10:03;;;;;;;9.52;6.00;;;;;;;12.56;98.47;100910.78;5095600;28;20481;-83
2022/05/20 23:12:28;;;;;;;5.60;5.28;;;;;;;12.56;98.86;100900.31;5095396;28;20077;-82
2022/05/20 23:14:53;;;;;;;6.57;5.22;;;;;;;12.57;98.73;100895.03;5095380;28;20469;-82
2022/05/20 23:17:19;;;;;;;5.70;5.20;;;;;;;12.56;99.14;100911.63;5094996;28;20028;-82
2022/05/20 23:19:44;;;;;;;5.20;4.50;;;;;;;12.51;98.83;100908.25;5095528;28;20036;-82
2022/05/20 23:22:09;;;;;;;5.35;4.53;;;;;;;12.41;97.36;100910.19;5095262;28;20040;-82
2022/05/20 23:24:35;;;;;;;3.60;3.30;;;;;;;12.39;97.63;100940.78;5095171;28;20484;-82
2022/05/20 23:27:00;;;;;;;3.70;3.30;;;;;;;12.29;96.77;100941.88;5095011;28;20416;-82
2022/05/20 23:29:26;;;;;;;9.10;3.65;;;;;;;12.24;96.59;100944.56;5095250;28;20557;-83
2022/05/20 23:31:55;;;;;;;4.68;2.63;;;;;;;12.17;95.54;100951.69;5095339;28;20110;-82
2022/05/20 23:34:20;;;;;;;3.00;2.75;;;;;;;12.08;94.99;100956.22;5094878;28;20084;-82
2022/05/20 23:36:45;;;;;;;3.83;2.58;;;;;;;11.95;94.31;100966.06;5094896;28;20020;-82
2022/05/20 23:39:14;;;;;;;3.83;3.08;;;;;;;11.84;94.41;100955.75;5112097;28;20030;-83
2022/05/20 23:41:40;;;;;;;5.35;2.40;;;;;;;11.81;94.23;100953.19;5094999;28;20102;-81
2022/05/20 23:44:08;;;;;;;3.05;2.63;;;;;;;11.76;95.75;100957.63;5094982;28;20024;-82
2022/05/20 23:46:33;;;;;;;2.95;2.35;;;;;;;11.74;95.89;100956.78;5095288;28;20060;-82
2022/05/20 23:48:58;;;;;;;2.35;2.17;;;;;;;11.74;96.24;100956.78;5094988;28;20023;-82
2022/05/20 23:51:24;;;;;;;4.55;2.40;;;;;;;11.78;97.44;100968.91;5111907;28;20491;-82
2022/05/20 23:53:49;;;;;;;2.47;2.30;;;;;;;11.79;97.64;100973.28;5095015;28;20023;-81
2022/05/20 23:58:58;;;;;;;3.17;2.47;;;;;;;11.70;97.53;100976.03;5112419;28;20066;-82
